createdAt,value
2022-12-08T00:02:58.266Z,99717.66
2022-12-08T00:06:22.217Z,99728.69
2022-12-08T00:09:40.846Z,99727.72
2022-12-08T00:12:45.630Z,99730.25
2022-12-08T00:15:49.252Z,99726.63
2022-12-08T00:18:52.663Z,99722.38
2022-12-08T00:21:56.330Z,99724.75
2022-12-08T00:24:59.600Z,99720.50
2022-12-08T00:28:02.621Z,99722.06
2022-12-08T00:31:11.277Z,99722.84
2022-12-08T00:34:15.561Z,99721.44
2022-12-08T00:37:18.790Z,99721.09
2022-12-08T00:40:21.740Z,99724.25
2022-12-08T00:43:24.910Z,99724.41
2022-12-08T00:46:27.962Z,99720.03
2022-12-08T00:49:31.372Z,99728.22
2022-12-08T00:52:34.353Z,99729.31
2022-12-08T00:55:38.546Z,99720.97
2022-12-08T00:58:41.633Z,99726.47
2022-12-08T01:01:46.215Z,99730.41
2022-12-08T01:04:51.070Z,99722.41
2022-12-08T01:07:54.360Z,99717.88
2022-12-08T01:10:57.508Z,99723.38
2022-12-08T01:14:00.873Z,99718.97
2022-12-08T01:17:05.023Z,99719.91
2022-12-08T01:20:09.000Z,99722.12
2022-12-08T01:23:11.891Z,99718.97
2022-12-08T01:26:16.854Z,99724.16
2022-12-08T01:29:19.868Z,99721.97
2022-12-08T01:32:23.152Z,99726.06
2022-12-08T01:35:26.221Z,99716.91
2022-12-08T01:38:29.573Z,99724.00
2022-12-08T01:41:34.381Z,99730.47
2022-12-08T01:44:37.683Z,99724.63
2022-12-08T01:47:43.610Z,99732.50
2022-12-08T01:50:48.375Z,99734.84
2022-12-08T01:53:51.883Z,99725.28
2022-12-08T01:57:05.860Z,99715.22
2022-12-08T02:00:12.697Z,99715.34
2022-12-08T02:03:30.174Z,99718.50
2022-12-08T02:06:38.186Z,99714.09
2022-12-08T02:09:42.269Z,99710.78
2022-12-08T02:12:45.359Z,99708.09
2022-12-08T02:15:58.774Z,99705.13
2022-12-08T02:19:31.375Z,99706.03
2022-12-08T02:22:56.443Z,99711.87
2022-12-08T02:26:11.967Z,99707.59
2022-12-08T02:29:36.683Z,99710.44
2022-12-08T02:32:48.816Z,99706.16
2022-12-08T02:36:02.420Z,99694.69
2022-12-08T02:39:40.164Z,99688.06
2022-12-08T02:42:46.803Z,99679.41
2022-12-08T02:45:54.346Z,99680.66
2022-12-08T02:48:58.295Z,99692.16
2022-12-08T02:52:10.712Z,99701.78
2022-12-08T02:55:25.003Z,99688.53
2022-12-08T02:58:46.518Z,99694.34
2022-12-08T03:02:20.864Z,99687.09
2022-12-08T03:06:01.449Z,99683.78
2022-12-08T03:09:13.674Z,99675.44
2022-12-08T03:12:37.614Z,99681.25
2022-12-08T03:15:42.297Z,99680.78
2022-12-08T03:18:58.794Z,99675.09
2022-12-08T03:22:04.877Z,99672.53
2022-12-08T03:25:10.060Z,99676.34
2022-12-08T03:28:13.418Z,99673.53
2022-12-08T03:31:19.061Z,99665.50
2022-12-08T03:34:26.977Z,99661.22
2022-12-08T03:37:30.306Z,99651.34
2022-12-08T03:40:34.615Z,99652.28
2022-12-08T03:43:37.555Z,99650.37
2022-12-08T03:46:40.862Z,99649.25
2022-12-08T03:49:44.055Z,99654.59
2022-12-08T03:52:47.536Z,99649.72
2022-12-08T03:55:50.681Z,99645.34
2022-12-08T03:58:55.065Z,99649.47
2022-12-08T04:01:58.115Z,99649.00
2022-12-08T04:05:01.382Z,99644.28
2022-12-08T04:08:04.698Z,99659.69
2022-12-08T04:11:08.358Z,99655.91
2022-12-08T04:14:11.535Z,99648.50
2022-12-08T04:17:15.193Z,99642.72
2022-12-08T04:20:18.136Z,99645.06
2022-12-08T04:23:22.358Z,99638.59
2022-12-08T04:26:25.294Z,99638.56
2022-12-08T04:29:29.422Z,99635.53
2022-12-08T04:32:32.496Z,99638.66
2022-12-08T04:35:36.061Z,99638.91
2022-12-08T04:38:39.242Z,99642.06
2022-12-08T04:41:42.827Z,99638.22
2022-12-08T04:44:45.732Z,99635.47
2022-12-08T04:47:48.962Z,99637.69
2022-12-08T04:50:51.692Z,99635.59
2022-12-08T04:53:54.657Z,99640.09
2022-12-08T04:56:57.399Z,99627.34
2022-12-08T05:00:00.603Z,99627.81
2022-12-08T05:03:04.363Z,99631.84
2022-12-08T05:06:07.777Z,99636.13
2022-12-08T05:09:11.122Z,99625.19
2022-12-08T05:12:14.547Z,99627.56
2022-12-08T05:15:17.592Z,99623.56
2022-12-08T05:18:21.168Z,99617.72
2022-12-08T05:21:24.206Z,99615.06
2022-12-08T05:24:27.446Z,99623.38
2022-12-08T05:27:30.412Z,99627.37
2022-12-08T05:30:33.529Z,99635.84
2022-12-08T05:33:36.463Z,99631.12
2022-12-08T05:36:39.768Z,99634.81
2022-12-08T05:39:42.732Z,99624.88
2022-12-08T05:42:47.046Z,99624.75
2022-12-08T05:45:50.193Z,99620.63
2022-12-08T05:48:53.468Z,99626.44
2022-12-08T05:51:56.394Z,99617.81
2022-12-08T05:55:00.014Z,99625.06
2022-12-08T05:58:07.661Z,99621.25
2022-12-08T06:01:37.853Z,99607.63
2022-12-08T06:04:41.290Z,99609.16
2022-12-08T06:07:44.746Z,99616.38
2022-12-08T06:10:48.717Z,99617.09
2022-12-08T06:13:52.181Z,99616.69
2022-12-08T06:16:55.508Z,99625.53
2022-12-08T06:19:59.584Z,99627.87
2022-12-08T06:23:04.213Z,99630.09
2022-12-08T06:26:13.400Z,99634.69
2022-12-08T06:29:16.811Z,99634.56
2022-12-08T06:32:27.124Z,99637.44
2022-12-08T06:35:30.762Z,99631.28
2022-12-08T06:38:35.665Z,99635.41
2022-12-08T06:42:00.247Z,99635.94
2022-12-08T06:45:03.559Z,99638.62
2022-12-08T06:48:07.067Z,99635.47
2022-12-08T06:51:17.958Z,99630.75
2022-12-08T06:54:21.217Z,99645.41
2022-12-08T06:57:24.728Z,99633.25
2022-12-08T07:00:29.179Z,99631.81
2022-12-08T07:03:32.377Z,99644.41
2022-12-08T07:06:37.276Z,99639.19
2022-12-08T07:09:40.451Z,99643.44
2022-12-08T07:12:43.824Z,99639.12
2022-12-08T07:15:46.857Z,99640.50
2022-12-08T07:18:50.382Z,99634.94
2022-12-08T07:21:53.410Z,99639.28
2022-12-08T07:24:57.065Z,99628.34
2022-12-08T07:28:00.147Z,99631.62
2022-12-08T07:31:05.216Z,99627.81
2022-12-08T07:34:11.507Z,99625.91
2022-12-08T07:37:15.314Z,99624.16
2022-12-08T07:40:18.490Z,99622.69
2022-12-08T07:43:22.564Z,99622.03
2022-12-08T07:46:26.629Z,99624.06
2022-12-08T07:49:30.776Z,99623.72
2022-12-08T07:52:35.388Z,99635.37
2022-12-08T07:55:42.850Z,99636.72
2022-12-08T07:58:47.108Z,99637.97
2022-12-08T08:02:06.542Z,99626.09
2022-12-08T08:05:15.244Z,99635.97
2022-12-08T08:08:18.551Z,99628.47
2022-12-08T08:11:22.302Z,99638.78
2022-12-08T08:14:26.509Z,99644.06
2022-12-08T08:17:30.294Z,99651.09
2022-12-08T08:20:33.561Z,99653.78
2022-12-08T08:23:36.829Z,99653.03
2022-12-08T08:26:40.210Z,99651.97
2022-12-08T08:29:43.560Z,99644.69
2022-12-08T08:32:47.398Z,99644.94
2022-12-08T08:35:50.656Z,99641.38
2022-12-08T08:38:53.610Z,99641.72
2022-12-08T08:41:56.839Z,99636.09
2022-12-08T08:44:59.822Z,99637.00
2022-12-08T08:48:03.325Z,99637.56
2022-12-08T08:51:11.458Z,99633.41
2022-12-08T08:54:14.724Z,99629.94
2022-12-08T08:57:23.632Z,99637.88
2022-12-08T09:00:28.787Z,99640.91
2022-12-08T09:03:31.838Z,99645.28
2022-12-08T09:06:35.913Z,99638.56
2022-12-08T09:09:39.607Z,99618.41
2022-12-08T09:12:43.009Z,99616.72
2022-12-08T09:15:46.428Z,99608.44
2022-12-08T09:18:51.713Z,99616.28
2022-12-08T09:21:55.309Z,99619.53
2022-12-08T09:24:58.728Z,99609.34
2022-12-08T09:28:04.173Z,99610.38
2022-12-08T09:31:08.131Z,99613.03
2022-12-08T09:34:12.458Z,99611.34
2022-12-08T09:37:15.723Z,99603.66
2022-12-08T09:40:21.225Z,99594.56
2022-12-08T09:43:39.810Z,99588.84
2022-12-08T09:46:44.849Z,99584.78
2022-12-08T09:49:50.085Z,99581.16
2022-12-08T09:53:18.183Z,99577.81
2022-12-08T09:56:30.123Z,99580.16
2022-12-08T09:59:35.392Z,99577.28
2022-12-08T10:02:40.069Z,99577.47
2022-12-08T10:05:56.650Z,99579.22
2022-12-08T10:09:21.166Z,99582.03
2022-12-08T10:12:56.444Z,99578.12
2022-12-08T10:16:36.448Z,99579.00
2022-12-08T10:19:44.310Z,99580.69
2022-12-08T10:22:52.409Z,99581.06
2022-12-08T10:26:04.424Z,99563.78
2022-12-08T10:29:12.187Z,99568.03
2022-12-08T10:32:21.735Z,99564.09
2022-12-08T10:35:25.652Z,99555.03
2022-12-08T10:38:34.306Z,99538.31
2022-12-08T10:41:37.213Z,99535.94
2022-12-08T10:44:53.933Z,99525.16
2022-12-08T10:48:02.783Z,99512.84
2022-12-08T10:51:25.745Z,99508.78
2022-12-08T10:54:33.681Z,99507.31
2022-12-08T10:57:38.971Z,99505.16
2022-12-08T11:00:42.039Z,99491.88
2022-12-08T11:03:56.026Z,99491.31
2022-12-08T11:06:59.474Z,99487.25
2022-12-08T11:10:03.298Z,99477.72
2022-12-08T11:13:07.731Z,99475.56
2022-12-08T11:16:18.278Z,99465.91
2022-12-08T11:19:22.816Z,99463.34
2022-12-08T11:22:30.667Z,99458.06
2022-12-08T11:25:34.167Z,99454.59
2022-12-08T11:28:37.678Z,99453.69
2022-12-08T11:31:57.502Z,99455.53
2022-12-08T11:35:05.354Z,99450.78
2022-12-08T11:38:21.559Z,99443.13
2022-12-08T11:41:32.824Z,99443.22
2022-12-08T11:44:45.261Z,99444.75
2022-12-08T11:47:56.474Z,99437.25
2022-12-08T11:51:13.804Z,99430.22
2022-12-08T11:54:49.423Z,99435.25
2022-12-08T11:57:52.360Z,99424.53
2022-12-08T12:00:55.588Z,99417.50
2022-12-08T12:04:21.978Z,99407.19
2022-12-08T12:07:54.305Z,99399.19
2022-12-08T12:11:09.588Z,99409.97
2022-12-08T12:14:39.939Z,99406.19
2022-12-08T12:18:01.082Z,99401.06
2022-12-08T12:21:18.562Z,99401.69
2022-12-08T12:24:32.812Z,99400.72
2022-12-08T12:27:40.189Z,99404.44
2022-12-08T12:31:03.419Z,99404.59
2022-12-08T12:34:12.279Z,99399.91
2022-12-08T12:37:19.369Z,99407.88
2022-12-08T12:40:25.009Z,99394.16
2022-12-08T12:43:34.053Z,99407.00
2022-12-08T12:46:46.891Z,99415.34
2022-12-08T12:49:52.009Z,99415.28
2022-12-08T12:52:55.048Z,99410.19
2022-12-08T12:56:03.721Z,99411.81
2022-12-08T12:59:36.364Z,99405.41
2022-12-08T13:02:50.026Z,99404.81
2022-12-08T13:05:53.780Z,99401.78
2022-12-08T13:08:57.517Z,99404.72
2022-12-08T13:12:09.349Z,99395.72
2022-12-08T13:15:20.343Z,99389.81
2022-12-08T13:18:36.549Z,99386.44
2022-12-08T13:21:40.218Z,99392.56
2022-12-08T13:24:44.001Z,99389.25
2022-12-08T13:27:54.536Z,99377.28
2022-12-08T13:31:02.760Z,99380.97
2022-12-08T13:34:08.602Z,99378.81
2022-12-08T13:37:11.566Z,99378.16
2022-12-08T13:40:19.594Z,99391.78
2022-12-08T13:43:45.045Z,99390.50
2022-12-08T13:47:25.073Z,99392.22
2022-12-08T13:55:06.871Z,99392.00
2022-12-08T13:57:34.273Z,99396.09
2022-12-08T14:00:37.604Z,99392.88
2022-12-08T14:07:19.989Z,99389.63
2022-12-08T14:10:26.893Z,99382.34
2022-12-08T14:13:31.548Z,99370.91
2022-12-08T14:16:40.314Z,99366.56
2022-12-08T14:19:45.309Z,99365.59
2022-12-08T14:22:49.088Z,99354.63
2022-12-08T14:25:52.814Z,99360.00
2022-12-08T14:28:56.383Z,99368.06
2022-12-08T14:31:59.521Z,99376.72
2022-12-08T14:35:08.988Z,99354.50
2022-12-08T14:38:15.108Z,99374.97
2022-12-08T14:41:25.882Z,99375.03
2022-12-08T14:47:35.140Z,99340.63
2022-12-08T14:50:39.702Z,99356.47
2022-12-08T14:53:55.122Z,99354.16
2022-12-08T14:56:58.352Z,99360.31
2022-12-08T15:00:08.624Z,99362.53
2022-12-08T15:03:12.855Z,99357.50
2022-12-08T15:06:16.272Z,99366.53
2022-12-08T15:09:41.112Z,99369.25
2022-12-08T15:13:05.772Z,99387.12
2022-12-08T15:16:39.027Z,99396.16
2022-12-08T15:19:42.449Z,99373.16
2022-12-08T15:22:45.667Z,99362.88
2022-12-08T15:25:49.590Z,99362.88
2022-12-08T15:28:53.758Z,99352.47
2022-12-08T15:31:59.879Z,99346.44
2022-12-08T15:35:03.074Z,99341.19
2022-12-08T15:38:07.246Z,99332.13
2022-12-08T15:41:14.559Z,99316.16
2022-12-08T15:44:18.615Z,99307.78
2022-12-08T15:47:23.862Z,99304.78
2022-12-08T15:50:28.534Z,99311.38
2022-12-08T15:53:31.618Z,99326.78
2022-12-08T15:56:45.278Z,99351.13
2022-12-08T15:59:59.369Z,99355.28
2022-12-08T16:03:59.308Z,99350.16
2022-12-08T16:09:51.621Z,99352.81
2022-12-08T16:13:55.662Z,99360.63
2022-12-08T16:16:37.116Z,99351.81
2022-12-08T16:19:40.915Z,99353.59
2022-12-08T16:22:56.412Z,99358.84
2022-12-08T16:26:23.883Z,99367.44
2022-12-08T16:29:30.121Z,99372.47
2022-12-08T16:32:33.698Z,99370.13
2022-12-08T16:35:36.980Z,99368.34
2022-12-08T16:38:40.892Z,99370.44
2022-12-08T16:42:02.554Z,99370.78
2022-12-08T16:45:26.606Z,99375.69
2022-12-08T16:48:30.508Z,99381.88
2022-12-08T16:51:34.887Z,99387.91
2022-12-08T16:54:44.253Z,99375.56
2022-12-08T16:57:49.642Z,99376.59
2022-12-08T17:00:54.414Z,99386.88
2022-12-08T17:04:29.681Z,99382.06
2022-12-08T17:07:25.566Z,99374.69
2022-12-08T17:10:32.024Z,99369.00
2022-12-08T17:13:41.590Z,99370.78
2022-12-08T17:16:45.480Z,99372.69
2022-12-08T17:19:48.891Z,99373.81
2022-12-08T17:22:58.844Z,99367.22
2022-12-08T17:26:02.474Z,99373.12
2022-12-08T17:29:08.600Z,99364.19
2022-12-08T17:32:15.006Z,99351.59
2022-12-08T17:35:20.185Z,99342.75
2022-12-08T17:38:27.707Z,99333.81
2022-12-08T17:41:41.866Z,99333.25
2022-12-08T17:44:46.935Z,99333.72
2022-12-08T17:47:50.714Z,99331.59
2022-12-08T17:51:02.707Z,99331.59
2022-12-08T17:54:10.710Z,99339.84
2022-12-08T17:57:14.263Z,99336.16
2022-12-08T18:00:23.520Z,99329.34
2022-12-08T18:03:29.122Z,99327.78
2022-12-08T18:06:33.105Z,99332.25
2022-12-08T18:09:37.063Z,99333.56
2022-12-08T18:12:40.954Z,99333.94
2022-12-08T18:15:47.767Z,99334.03
2022-12-08T18:18:51.792Z,99326.88
2022-12-08T18:21:59.759Z,99335.91
2022-12-08T18:25:03.361Z,99335.47
2022-12-08T18:28:07.496Z,99336.56
2022-12-08T18:31:14.210Z,99332.34
2022-12-08T18:34:19.644Z,99324.63
2022-12-08T18:37:25.951Z,99327.44
2022-12-08T18:40:35.001Z,99314.03
2022-12-08T18:43:40.953Z,99313.69
2022-12-08T18:46:46.307Z,99316.81
2022-12-08T18:49:52.884Z,99315.16
2022-12-08T18:52:57.371Z,99311.25
2022-12-08T18:56:01.574Z,99318.06
2022-12-08T18:59:11.783Z,99311.59
2022-12-08T19:02:19.377Z,99308.00
2022-12-08T19:05:34.125Z,99315.72
2022-12-08T19:08:38.746Z,99319.97
2022-12-08T19:11:57.803Z,99302.31
2022-12-08T19:15:07.964Z,99301.31
2022-12-08T19:18:19.708Z,99305.34
2022-12-08T19:21:43.032Z,99304.84
2022-12-08T19:25:00.027Z,99307.47
2022-12-08T19:28:05.951Z,99303.44
2022-12-08T19:31:13.276Z,99302.75
2022-12-08T19:34:25.839Z,99305.09
2022-12-08T19:37:40.329Z,99303.75
2022-12-08T19:41:25.451Z,99305.56
2022-12-08T19:44:54.659Z,99306.22
2022-12-08T19:48:01.741Z,99309.34
2022-12-08T19:51:13.882Z,99304.41
2022-12-08T19:54:45.127Z,99300.97
2022-12-08T19:58:25.366Z,99317.06
2022-12-08T20:01:41.521Z,99314.59
2022-12-08T20:04:50.075Z,99309.00
2022-12-08T20:07:56.865Z,99308.22
2022-12-08T20:11:17.406Z,99302.31
2022-12-08T20:14:41.441Z,99297.03
2022-12-08T20:17:58.231Z,99301.59
2022-12-08T20:21:29.515Z,99303.06
2022-12-08T20:24:54.344Z,99299.41
2022-12-08T20:28:20.644Z,99304.31
2022-12-08T20:31:46.398Z,99304.84
2022-12-08T20:35:01.764Z,99300.50
2022-12-08T20:38:07.845Z,99290.00
2022-12-08T20:41:13.066Z,99291.44
2022-12-08T20:44:22.634Z,99301.41
2022-12-08T20:47:39.631Z,99302.41
2022-12-08T20:50:46.685Z,99307.31
2022-12-08T20:53:59.845Z,99293.69
2022-12-08T20:57:09.125Z,99295.34
2022-12-08T21:00:15.065Z,99304.84
2022-12-08T21:03:42.307Z,99300.63
2022-12-08T21:06:43.992Z,99301.97
2022-12-08T21:10:08.828Z,99306.44
2022-12-08T21:13:14.809Z,99300.03
2022-12-08T21:16:22.089Z,99300.94
2022-12-08T21:19:37.994Z,99300.69
2022-12-08T21:22:44.991Z,99295.00
2022-12-08T21:25:51.475Z,99297.59
2022-12-08T21:28:55.096Z,99291.19
2022-12-08T21:32:00.457Z,99291.53
2022-12-08T21:35:03.999Z,99297.88
2022-12-08T21:38:16.539Z,99297.78
2022-12-08T21:41:40.882Z,99308.50
2022-12-08T21:44:49.909Z,99299.69
2022-12-08T21:47:53.441Z,99297.88
2022-12-08T21:50:57.861Z,99303.16
2022-12-08T21:54:02.667Z,99301.69
2022-12-08T21:57:08.664Z,99301.59
2022-12-08T22:00:17.835Z,99304.06
2022-12-08T22:03:26.521Z,99309.84
2022-12-08T22:06:30.757Z,99299.78
2022-12-08T22:09:37.284Z,99314.78
2022-12-08T22:12:46.708Z,99316.25
2022-12-08T22:16:01.121Z,99307.75
2022-12-08T22:19:04.399Z,99302.81
2022-12-08T22:22:08.345Z,99297.00
2022-12-08T22:25:12.679Z,99303.06
2022-12-08T22:28:19.328Z,99302.19
2022-12-08T22:31:25.044Z,99303.94
2022-12-08T22:34:32.315Z,99310.78
2022-12-08T22:37:35.800Z,99305.63
2022-12-08T22:40:44.301Z,99301.50
2022-12-08T22:43:50.806Z,99289.97
2022-12-08T22:46:56.757Z,99291.09
2022-12-08T22:50:49.192Z,99287.59
2022-12-08T22:53:53.010Z,99289.19
2022-12-08T22:57:01.919Z,99285.75
2022-12-08T23:00:07.489Z,99289.31
2022-12-08T23:03:15.704Z,99290.00
2022-12-08T23:06:21.938Z,99289.22
2022-12-08T23:09:28.505Z,99283.06
2022-12-08T23:12:33.741Z,99283.41
2022-12-08T23:15:38.534Z,99283.94
2022-12-08T23:18:46.330Z,99284.84
2022-12-08T23:21:49.768Z,99293.16
2022-12-08T23:24:53.591Z,99285.53
2022-12-08T23:27:57.958Z,99288.66
2022-12-08T23:31:01.403Z,99285.31
2022-12-08T23:34:05.080Z,99285.75
2022-12-08T23:37:15.534Z,99283.75
2022-12-08T23:40:19.885Z,99274.66
2022-12-08T23:43:26.239Z,99277.03
2022-12-08T23:46:29.554Z,99285.63
2022-12-08T23:49:33.621Z,99292.78
2022-12-08T23:52:40.698Z,99284.03
2022-12-08T23:55:44.859Z,99278.03
2022-12-08T23:58:49.689Z,99276.13
